Gage Information Page
Francis E. Walter Reservoir, PA

Provisional Data Subject to Revision
Francis E. Walter Reservoir, PA
Amber Threshold Elevation:1392 feet
Red Threshold Elevation:1441 feet
Date (ET) Elevation (ft) Storage (ac-ft) Inflow (cfs) Outflow (cfs)
May 24, 2015 11:15 am 1368.34 19873 320 793
May 24, 2015 10:15 am 1368.42 19912 328 793
May 24, 2015   9:15 am 1368.50 19952 328 793
May 24, 2015   8:15 am 1368.58 19992 349 793
May 24, 2015   7:15 am 1368.66 20031 338 793
May 24, 2015   6:15 am 1368.74 20071 334 793
May 24, 2015   5:15 am 1368.82 20111 322 793
May 24, 2015   4:15 am 1368.90 20151 311 793
May 24, 2015   3:15 am 1368.97 20185 299 793
May 24, 2015   2:15 am 1369.04 20220 280 793
May 24, 2015   1:15 am 1369.12 20260 276 793
May 24, 2015 12:15 am 1369.15 20275 244 281
May 23, 2015 11:15 pm 1369.16 20280 244 281
May 23, 2015 10:15 pm 1369.16 20280 244 281
May 23, 2015   9:15 pm 1369.17 20285 244 281
May 23, 2015   8:15 pm 1369.18 20290 230 281
May 23, 2015   7:15 pm 1369.18 20290 235 281
May 23, 2015   6:15 pm 1369.19 20294 255 281
May 23, 2015   5:15 pm 1369.19 20294 267 281
May 23, 2015   4:15 pm 1369.20 20299 287 281
May 23, 2015   3:15 pm 1369.21 20304 308 281
May 23, 2015   2:15 pm 1369.21 20304 313 281
May 23, 2015   1:15 pm 1369.22 20309 333 281
May 23, 2015 12:15 pm 1369.27 20334 367 802
Report Generated May 24, 2015 12:24 PM

NWS Web Info
USGS Web Info